sensor_id;sensor_type;location;lat;lon;timestamp;P1;durP1;ratioP1;P2;durP2;ratioP2
4206;SDS011;2117;47.972;7.830;2024-01-10T00:01:32;50.87;;;29.50;;
4206;SDS011;2117;47.972;7.830;2024-01-10T00:03:58;52.53;;;29.10;;
4206;SDS011;2117;47.972;7.830;2024-01-10T00:06:23;52.33;;;29.67;;
4206;SDS011;2117;47.972;7.830;2024-01-10T00:08:49;48.50;;;27.87;;
4206;SDS011;2117;47.972;7.830;2024-01-10T00:11:15;48.30;;;29.37;;
4206;SDS011;2117;47.972;7.830;2024-01-10T00:13:41;44.40;;;27.33;;
4206;SDS011;2117;47.972;7.830;2024-01-10T00:16:06;58.93;;;31.97;;
4206;SDS011;2117;47.972;7.830;2024-01-10T00:18:32;55.77;;;30.70;;
4206;SDS011;2117;47.972;7.830;2024-01-10T00:20:58;47.47;;;27.47;;
4206;SDS011;2117;47.972;7.830;2024-01-10T00:23:24;56.77;;;31.43;;
4206;SDS011;2117;47.972;7.830;2024-01-10T00:25:50;46.50;;;28.10;;
4206;SDS011;2117;47.972;7.830;2024-01-10T00:28:15;54.93;;;29.60;;
4206;SDS011;2117;47.972;7.830;2024-01-10T00:30:44;53.87;;;30.43;;
4206;SDS011;2117;47.972;7.830;2024-01-10T00:33:12;50.30;;;29.00;;
4206;SDS011;2117;47.972;7.830;2024-01-10T00:35:38;51.80;;;28.90;;
4206;SDS011;2117;47.972;7.830;2024-01-10T00:38:03;51.57;;;29.43;;
4206;SDS011;2117;47.972;7.830;2024-01-10T00:40:29;52.10;;;28.80;;
4206;SDS011;2117;47.972;7.830;2024-01-10T00:42:54;44.80;;;27.00;;
4206;SDS011;2117;47.972;7.830;2024-01-10T00:45:20;54.53;;;30.30;;
4206;SDS011;2117;47.972;7.830;2024-01-10T00:47:48;46.70;;;28.37;;
4206;SDS011;2117;47.972;7.830;2024-01-10T00:50:13;50.93;;;28.47;;
4206;SDS011;2117;47.972;7.830;2024-01-10T00:52:39;43.90;;;27.90;;
4206;SDS011;2117;47.972;7.830;2024-01-10T00:55:05;49.37;;;30.07;;
4206;SDS011;2117;47.972;7.830;2024-01-10T00:57:30;54.70;;;29.47;;
4206;SDS011;2117;47.972;7.830;2024-01-10T00:59:56;47.03;;;28.63;;
4206;SDS011;2117;47.972;7.830;2024-01-10T01:02:21;52.67;;;27.63;;
4206;SDS011;2117;47.972;7.830;2024-01-10T01:04:47;48.00;;;27.03;;
4206;SDS011;2117;47.972;7.830;2024-01-10T01:07:13;49.40;;;28.33;;
4206;SDS011;2117;47.972;7.830;2024-01-10T01:09:38;49.73;;;28.53;;
4206;SDS011;2117;47.972;7.830;2024-01-10T01:12:04;54.40;;;27.90;;
4206;SDS011;2117;47.972;7.830;2024-01-10T01:14:29;52.40;;;29.50;;
4206;SDS011;2117;47.972;7.830;2024-01-10T01:16:55;47.50;;;30.10;;
4206;SDS011;2117;47.972;7.830;2024-01-10T01:19:21;51.93;;;29.67;;
4206;SDS011;2117;47.972;7.830;2024-01-10T01:21:46;56.20;;;30.53;;
4206;SDS011;2117;47.972;7.830;2024-01-10T01:24:12;49.90;;;28.90;;
4206;SDS011;2117;47.972;7.830;2024-01-10T01:26:37;48.77;;;28.10;;
4206;SDS011;2117;47.972;7.830;2024-01-10T01:29:03;52.70;;;30.07;;
4206;SDS011;2117;47.972;7.830;2024-01-10T01:31:29;47.40;;;26.87;;
4206;SDS011;2117;47.972;7.830;2024-01-10T01:33:55;41.97;;;27.40;;
4206;SDS011;2117;47.972;7.830;2024-01-10T01:36:20;56.23;;;28.53;;
4206;SDS011;2117;47.972;7.830;2024-01-10T01:38:46;51.30;;;29.73;;
4206;SDS011;2117;47.972;7.830;2024-01-10T01:41:11;48.13;;;28.23;;
4206;SDS011;2117;47.972;7.830;2024-01-10T01:43:40;51.33;;;28.60;;
4206;SDS011;2117;47.972;7.830;2024-01-10T01:46:07;51.10;;;30.30;;
4206;SDS011;2117;47.972;7.830;2024-01-10T01:48:33;61.80;;;30.10;;
4206;SDS011;2117;47.972;7.830;2024-01-10T01:51:00;55.90;;;29.90;;
4206;SDS011;2117;47.972;7.830;2024-01-10T01:53:29;62.10;;;31.43;;
4206;SDS011;2117;47.972;7.830;2024-01-10T01:55:55;48.60;;;29.40;;
4206;SDS011;2117;47.972;7.830;2024-01-10T01:58:22;57.10;;;31.90;;
4206;SDS011;2117;47.972;7.830;2024-01-10T02:00:48;53.47;;;29.53;;
4206;SDS011;2117;47.972;7.830;2024-01-10T02:03:15;51.47;;;32.23;;
4206;SDS011;2117;47.972;7.830;2024-01-10T02:05:40;52.63;;;31.80;;
4206;SDS011;2117;47.972;7.830;2024-01-10T02:08:06;53.20;;;32.10;;
4206;SDS011;2117;47.972;7.830;2024-01-10T02:10:33;64.93;;;30.43;;
4206;SDS011;2117;47.972;7.830;2024-01-10T02:12:59;48.77;;;30.80;;
4206;SDS011;2117;47.972;7.830;2024-01-10T02:15:25;55.17;;;32.20;;
4206;SDS011;2117;47.972;7.830;2024-01-10T02:17:51;53.23;;;28.83;;
4206;SDS011;2117;47.972;7.830;2024-01-10T02:20:16;62.87;;;31.93;;
4206;SDS011;2117;47.972;7.830;2024-01-10T02:22:42;60.30;;;31.17;;
4206;SDS011;2117;47.972;7.830;2024-01-10T02:25:09;50.27;;;29.43;;
4206;SDS011;2117;47.972;7.830;2024-01-10T02:27:39;56.77;;;29.40;;
4206;SDS011;2117;47.972;7.830;2024-01-10T02:30:06;53.70;;;32.17;;
4206;SDS011;2117;47.972;7.830;2024-01-10T02:32:32;53.73;;;32.20;;
4206;SDS011;2117;47.972;7.830;2024-01-10T02:34:58;52.77;;;31.80;;
4206;SDS011;2117;47.972;7.830;2024-01-10T02:37:24;53.67;;;30.10;;
4206;SDS011;2117;47.972;7.830;2024-01-10T02:39:50;51.03;;;31.60;;
4206;SDS011;2117;47.972;7.830;2024-01-10T02:42:16;49.90;;;29.57;;
4206;SDS011;2117;47.972;7.830;2024-01-10T02:44:42;56.73;;;32.47;;
4206;SDS011;2117;47.972;7.830;2024-01-10T02:47:08;56.60;;;32.83;;
4206;SDS011;2117;47.972;7.830;2024-01-10T02:49:34;52.77;;;30.30;;
4206;SDS011;2117;47.972;7.830;2024-01-10T02:51:59;54.07;;;31.23;;
4206;SDS011;2117;47.972;7.830;2024-01-10T02:54:25;52.00;;;30.30;;
4206;SDS011;2117;47.972;7.830;2024-01-10T02:56:51;57.10;;;31.47;;
4206;SDS011;2117;47.972;7.830;2024-01-10T02:59:16;58.47;;;33.40;;
4206;SDS011;2117;47.972;7.830;2024-01-10T03:01:42;55.00;;;31.80;;
4206;SDS011;2117;47.972;7.830;2024-01-10T03:04:08;55.30;;;31.93;;
4206;SDS011;2117;47.972;7.830;2024-01-10T03:06:34;60.73;;;32.97;;
4206;SDS011;2117;47.972;7.830;2024-01-10T03:08:59;60.17;;;30.67;;
4206;SDS011;2117;47.972;7.830;2024-01-10T03:11:25;53.47;;;31.00;;
4206;SDS011;2117;47.972;7.830;2024-01-10T03:13:54;58.00;;;32.07;;
4206;SDS011;2117;47.972;7.830;2024-01-10T03:16:26;58.60;;;31.93;;
4206;SDS011;2117;47.972;7.830;2024-01-10T03:18:52;55.73;;;30.30;;
4206;SDS011;2117;47.972;7.830;2024-01-10T03:21:17;54.40;;;30.50;;
4206;SDS011;2117;47.972;7.830;2024-01-10T03:23:49;56.90;;;32.63;;
4206;SDS011;2117;47.972;7.830;2024-01-10T03:26:21;53.70;;;30.43;;
4206;SDS011;2117;47.972;7.830;2024-01-10T03:28:47;66.83;;;31.27;;
4206;SDS011;2117;47.972;7.830;2024-01-10T03:31:13;60.00;;;32.77;;
4206;SDS011;2117;47.972;7.830;2024-01-10T03:33:39;51.90;;;31.87;;
4206;SDS011;2117;47.972;7.830;2024-01-10T03:36:06;66.50;;;32.50;;
4206;SDS011;2117;47.972;7.830;2024-01-10T03:38:33;59.53;;;32.57;;
4206;SDS011;2117;47.972;7.830;2024-01-10T03:40:59;59.17;;;32.23;;
4206;SDS011;2117;47.972;7.830;2024-01-10T03:43:24;58.80;;;33.30;;
4206;SDS011;2117;47.972;7.830;2024-01-10T03:45:50;54.53;;;31.30;;
4206;SDS011;2117;47.972;7.830;2024-01-10T03:48:16;66.07;;;32.30;;
4206;SDS011;2117;47.972;7.830;2024-01-10T03:50:41;47.93;;;29.20;;
4206;SDS011;2117;47.972;7.830;2024-01-10T03:53:07;65.47;;;32.50;;
4206;SDS011;2117;47.972;7.830;2024-01-10T03:55:32;54.97;;;30.07;;
4206;SDS011;2117;47.972;7.830;2024-01-10T03:57:58;59.43;;;29.57;;
4206;SDS011;2117;47.972;7.830;2024-01-10T04:00:24;69.57;;;32.40;;
4206;SDS011;2117;47.972;7.830;2024-01-10T04:02:50;66.47;;;32.13;;
4206;SDS011;2117;47.972;7.830;2024-01-10T04:05:16;51.37;;;29.47;;
4206;SDS011;2117;47.972;7.830;2024-01-10T04:07:42;58.60;;;32.23;;
4206;SDS011;2117;47.972;7.830;2024-01-10T04:10:08;59.07;;;33.70;;
4206;SDS011;2117;47.972;7.830;2024-01-10T04:12:38;64.13;;;33.67;;
4206;SDS011;2117;47.972;7.830;2024-01-10T04:15:03;63.57;;;33.77;;
4206;SDS011;2117;47.972;7.830;2024-01-10T04:17:30;58.70;;;32.83;;
4206;SDS011;2117;47.972;7.830;2024-01-10T04:19:55;53.37;;;31.93;;
4206;SDS011;2117;47.972;7.830;2024-01-10T04:22:21;56.23;;;31.30;;
4206;SDS011;2117;47.972;7.830;2024-01-10T04:24:49;61.73;;;31.67;;
4206;SDS011;2117;47.972;7.830;2024-01-10T04:27:14;60.37;;;34.30;;
4206;SDS011;2117;47.972;7.830;2024-01-10T04:29:40;60.33;;;32.40;;
4206;SDS011;2117;47.972;7.830;2024-01-10T04:32:06;61.37;;;35.17;;
4206;SDS011;2117;47.972;7.830;2024-01-10T04:34:32;54.20;;;31.50;;
4206;SDS011;2117;47.972;7.830;2024-01-10T04:36:57;52.20;;;31.43;;
4206;SDS011;2117;47.972;7.830;2024-01-10T04:39:23;54.90;;;31.87;;
4206;SDS011;2117;47.972;7.830;2024-01-10T04:41:48;60.90;;;32.53;;
4206;SDS011;2117;47.972;7.830;2024-01-10T04:44:14;52.83;;;30.00;;
4206;SDS011;2117;47.972;7.830;2024-01-10T04:46:40;67.63;;;33.17;;
4206;SDS011;2117;47.972;7.830;2024-01-10T04:49:06;58.90;;;33.07;;
4206;SDS011;2117;47.972;7.830;2024-01-10T04:51:32;61.33;;;33.73;;
4206;SDS011;2117;47.972;7.830;2024-01-10T04:53:57;53.23;;;30.70;;
4206;SDS011;2117;47.972;7.830;2024-01-10T04:56:23;59.40;;;32.90;;
4206;SDS011;2117;47.972;7.830;2024-01-10T04:58:49;64.93;;;35.33;;
4206;SDS011;2117;47.972;7.830;2024-01-10T05:01:14;56.53;;;31.20;;
4206;SDS011;2117;47.972;7.830;2024-01-10T05:03:40;56.17;;;31.97;;
4206;SDS011;2117;47.972;7.830;2024-01-10T05:06:05;53.33;;;31.90;;
4206;SDS011;2117;47.972;7.830;2024-01-10T05:08:32;57.80;;;32.13;;
4206;SDS011;2117;47.972;7.830;2024-01-10T05:10:57;63.23;;;34.33;;
4206;SDS011;2117;47.972;7.830;2024-01-10T05:13:23;63.90;;;34.93;;
4206;SDS011;2117;47.972;7.830;2024-01-10T05:15:48;67.23;;;34.80;;
4206;SDS011;2117;47.972;7.830;2024-01-10T05:18:14;61.40;;;35.43;;
4206;SDS011;2117;47.972;7.830;2024-01-10T05:20:41;62.30;;;33.53;;
4206;SDS011;2117;47.972;7.830;2024-01-10T05:23:06;59.70;;;32.13;;
4206;SDS011;2117;47.972;7.830;2024-01-10T05:25:32;64.87;;;34.77;;
4206;SDS011;2117;47.972;7.830;2024-01-10T05:27:58;63.20;;;34.03;;
4206;SDS011;2117;47.972;7.830;2024-01-10T05:30:23;71.90;;;33.67;;
4206;SDS011;2117;47.972;7.830;2024-01-10T05:32:49;55.43;;;34.60;;
4206;SDS011;2117;47.972;7.830;2024-01-10T05:35:15;62.40;;;35.00;;
4206;SDS011;2117;47.972;7.830;2024-01-10T05:37:40;57.70;;;32.87;;
4206;SDS011;2117;47.972;7.830;2024-01-10T05:40:06;56.80;;;34.50;;
4206;SDS011;2117;47.972;7.830;2024-01-10T05:42:32;57.70;;;35.17;;
4206;SDS011;2117;47.972;7.830;2024-01-10T05:44:58;64.60;;;32.07;;
4206;SDS011;2117;47.972;7.830;2024-01-10T05:47:27;67.27;;;35.57;;
4206;SDS011;2117;47.972;7.830;2024-01-10T05:49:53;66.30;;;34.57;;
4206;SDS011;2117;47.972;7.830;2024-01-10T05:52:19;61.03;;;35.07;;
4206;SDS011;2117;47.972;7.830;2024-01-10T05:54:45;52.70;;;31.90;;
4206;SDS011;2117;47.972;7.830;2024-01-10T05:57:13;66.97;;;36.63;;
4206;SDS011;2117;47.972;7.830;2024-01-10T05:59:39;67.83;;;34.63;;
4206;SDS011;2117;47.972;7.830;2024-01-10T06:02:04;62.53;;;33.80;;
4206;SDS011;2117;47.972;7.830;2024-01-10T06:04:30;71.37;;;36.00;;
4206;SDS011;2117;47.972;7.830;2024-01-10T06:06:59;58.20;;;32.07;;
4206;SDS011;2117;47.972;7.830;2024-01-10T06:09:26;68.00;;;37.30;;
4206;SDS011;2117;47.972;7.830;2024-01-10T06:11:51;65.30;;;34.43;;
4206;SDS011;2117;47.972;7.830;2024-01-10T06:14:17;60.33;;;32.57;;
4206;SDS011;2117;47.972;7.830;2024-01-10T06:16:43;60.23;;;33.43;;
4206;SDS011;2117;47.972;7.830;2024-01-10T06:19:10;62.43;;;33.73;;
4206;SDS011;2117;47.972;7.830;2024-01-10T06:21:36;67.50;;;35.37;;
4206;SDS011;2117;47.972;7.830;2024-01-10T06:24:02;60.60;;;34.00;;
4206;SDS011;2117;47.972;7.830;2024-01-10T06:26:28;67.03;;;35.23;;
4206;SDS011;2117;47.972;7.830;2024-01-10T06:28:53;65.17;;;35.90;;
4206;SDS011;2117;47.972;7.830;2024-01-10T06:31:19;65.43;;;34.67;;
4206;SDS011;2117;47.972;7.830;2024-01-10T06:33:45;62.27;;;34.40;;
4206;SDS011;2117;47.972;7.830;2024-01-10T06:36:10;66.67;;;34.93;;
4206;SDS011;2117;47.972;7.830;2024-01-10T06:38:38;65.43;;;36.33;;
4206;SDS011;2117;47.972;7.830;2024-01-10T06:41:07;60.00;;;33.23;;
4206;SDS011;2117;47.972;7.830;2024-01-10T06:43:33;59.67;;;33.50;;
4206;SDS011;2117;47.972;7.830;2024-01-10T06:45:59;63.90;;;34.13;;
4206;SDS011;2117;47.972;7.830;2024-01-10T06:48:25;64.63;;;35.60;;
4206;SDS011;2117;47.972;7.830;2024-01-10T06:50:50;61.33;;;34.50;;
4206;SDS011;2117;47.972;7.830;2024-01-10T06:53:16;57.50;;;34.00;;
4206;SDS011;2117;47.972;7.830;2024-01-10T06:55:41;60.10;;;33.30;;
4206;SDS011;2117;47.972;7.830;2024-01-10T06:58:07;62.57;;;35.40;;
4206;SDS011;2117;47.972;7.830;2024-01-10T07:00:33;60.20;;;32.10;;
4206;SDS011;2117;47.972;7.830;2024-01-10T07:03:00;57.00;;;33.10;;
4206;SDS011;2117;47.972;7.830;2024-01-10T07:05:27;60.60;;;33.30;;
4206;SDS011;2117;47.972;7.830;2024-01-10T07:07:53;55.67;;;33.43;;
4206;SDS011;2117;47.972;7.830;2024-01-10T07:10:19;61.40;;;33.83;;
4206;SDS011;2117;47.972;7.830;2024-01-10T07:12:44;61.80;;;32.50;;
4206;SDS011;2117;47.972;7.830;2024-01-10T07:15:10;55.77;;;31.27;;
4206;SDS011;2117;47.972;7.830;2024-01-10T07:17:36;61.53;;;32.70;;
4206;SDS011;2117;47.972;7.830;2024-01-10T07:20:02;57.60;;;32.40;;
4206;SDS011;2117;47.972;7.830;2024-01-10T07:22:28;71.10;;;36.27;;
4206;SDS011;2117;47.972;7.830;2024-01-10T07:24:54;60.83;;;33.47;;
4206;SDS011;2117;47.972;7.830;2024-01-10T07:27:19;66.50;;;33.23;;
4206;SDS011;2117;47.972;7.830;2024-01-10T07:29:45;68.83;;;38.30;;
4206;SDS011;2117;47.972;7.830;2024-01-10T07:32:11;62.47;;;36.93;;
4206;SDS011;2117;47.972;7.830;2024-01-10T07:34:39;60.37;;;34.00;;
4206;SDS011;2117;47.972;7.830;2024-01-10T07:37:05;61.67;;;35.60;;
4206;SDS011;2117;47.972;7.830;2024-01-10T07:39:31;59.70;;;34.03;;
4206;SDS011;2117;47.972;7.830;2024-01-10T07:41:56;59.20;;;32.57;;
4206;SDS011;2117;47.972;7.830;2024-01-10T07:44:23;67.23;;;35.40;;
4206;SDS011;2117;47.972;7.830;2024-01-10T07:46:49;65.37;;;35.10;;
4206;SDS011;2117;47.972;7.830;2024-01-10T07:49:18;61.50;;;35.63;;
4206;SDS011;2117;47.972;7.830;2024-01-10T07:51:46;69.93;;;34.30;;
4206;SDS011;2117;47.972;7.830;2024-01-10T07:54:12;67.87;;;37.10;;
4206;SDS011;2117;47.972;7.830;2024-01-10T07:56:38;78.93;;;44.97;;
4206;SDS011;2117;47.972;7.830;2024-01-10T07:59:04;73.53;;;39.50;;
4206;SDS011;2117;47.972;7.830;2024-01-10T08:01:30;70.93;;;39.17;;
4206;SDS011;2117;47.972;7.830;2024-01-10T08:03:56;65.97;;;39.47;;
4206;SDS011;2117;47.972;7.830;2024-01-10T08:06:21;66.73;;;36.33;;
4206;SDS011;2117;47.972;7.830;2024-01-10T08:08:47;70.73;;;35.73;;
4206;SDS011;2117;47.972;7.830;2024-01-10T08:11:13;65.30;;;34.60;;
4206;SDS011;2117;47.972;7.830;2024-01-10T08:13:38;70.50;;;38.27;;
4206;SDS011;2117;47.972;7.830;2024-01-10T08:16:04;80.83;;;44.00;;
4206;SDS011;2117;47.972;7.830;2024-01-10T08:18:30;69.37;;;38.53;;
4206;SDS011;2117;47.972;7.830;2024-01-10T08:20:55;67.93;;;35.40;;
4206;SDS011;2117;47.972;7.830;2024-01-10T08:23:21;64.37;;;34.23;;
4206;SDS011;2117;47.972;7.830;2024-01-10T08:25:46;68.07;;;36.97;;
4206;SDS011;2117;47.972;7.830;2024-01-10T08:28:12;68.67;;;36.90;;
4206;SDS011;2117;47.972;7.830;2024-01-10T08:30:38;68.37;;;35.50;;
4206;SDS011;2117;47.972;7.830;2024-01-10T08:33:04;67.30;;;35.20;;
4206;SDS011;2117;47.972;7.830;2024-01-10T08:35:29;62.40;;;35.13;;
4206;SDS011;2117;47.972;7.830;2024-01-10T08:37:55;72.90;;;38.87;;
4206;SDS011;2117;47.972;7.830;2024-01-10T08:40:21;65.90;;;35.90;;
4206;SDS011;2117;47.972;7.830;2024-01-10T08:42:50;65.40;;;34.67;;
4206;SDS011;2117;47.972;7.830;2024-01-10T08:45:17;70.83;;;37.17;;
4206;SDS011;2117;47.972;7.830;2024-01-10T08:47:42;61.43;;;35.13;;
4206;SDS011;2117;47.972;7.830;2024-01-10T08:50:08;76.30;;;36.93;;
4206;SDS011;2117;47.972;7.830;2024-01-10T08:52:35;66.60;;;37.80;;
4206;SDS011;2117;47.972;7.830;2024-01-10T08:55:06;67.60;;;35.80;;
4206;SDS011;2117;47.972;7.830;2024-01-10T08:57:32;73.83;;;36.63;;
4206;SDS011;2117;47.972;7.830;2024-01-10T08:59:58;64.70;;;34.87;;
4206;SDS011;2117;47.972;7.830;2024-01-10T09:02:24;68.53;;;36.23;;
4206;SDS011;2117;47.972;7.830;2024-01-10T09:04:52;58.30;;;33.43;;
4206;SDS011;2117;47.972;7.830;2024-01-10T09:07:18;65.00;;;35.33;;
4206;SDS011;2117;47.972;7.830;2024-01-10T09:09:44;62.97;;;35.00;;
4206;SDS011;2117;47.972;7.830;2024-01-10T09:12:10;54.63;;;33.40;;
4206;SDS011;2117;47.972;7.830;2024-01-10T09:14:36;56.30;;;34.37;;
4206;SDS011;2117;47.972;7.830;2024-01-10T09:17:01;59.67;;;35.20;;
4206;SDS011;2117;47.972;7.830;2024-01-10T09:19:31;66.40;;;37.03;;
4206;SDS011;2117;47.972;7.830;2024-01-10T09:21:57;58.07;;;33.50;;
4206;SDS011;2117;47.972;7.830;2024-01-10T09:24:23;60.53;;;34.63;;
4206;SDS011;2117;47.972;7.830;2024-01-10T09:26:51;66.17;;;35.23;;
4206;SDS011;2117;47.972;7.830;2024-01-10T09:29:16;65.83;;;36.53;;
4206;SDS011;2117;47.972;7.830;2024-01-10T09:31:42;64.40;;;39.20;;
4206;SDS011;2117;47.972;7.830;2024-01-10T09:34:08;63.33;;;36.43;;
4206;SDS011;2117;47.972;7.830;2024-01-10T09:36:34;57.53;;;32.97;;
4206;SDS011;2117;47.972;7.830;2024-01-10T09:38:59;62.43;;;36.03;;
4206;SDS011;2117;47.972;7.830;2024-01-10T09:41:25;64.57;;;35.73;;
4206;SDS011;2117;47.972;7.830;2024-01-10T09:43:55;58.70;;;34.50;;
4206;SDS011;2117;47.972;7.830;2024-01-10T09:46:21;72.63;;;35.90;;
4206;SDS011;2117;47.972;7.830;2024-01-10T09:48:46;66.63;;;35.80;;
4206;SDS011;2117;47.972;7.830;2024-01-10T09:51:12;65.43;;;34.10;;
4206;SDS011;2117;47.972;7.830;2024-01-10T09:53:38;60.27;;;35.53;;
4206;SDS011;2117;47.972;7.830;2024-01-10T09:56:09;61.43;;;34.30;;
4206;SDS011;2117;47.972;7.830;2024-01-10T09:58:35;60.17;;;35.60;;
4206;SDS011;2117;47.972;7.830;2024-01-10T10:01:04;59.40;;;34.90;;
4206;SDS011;2117;47.972;7.830;2024-01-10T10:03:30;66.97;;;37.30;;
4206;SDS011;2117;47.972;7.830;2024-01-10T10:06:00;55.70;;;33.67;;
4206;SDS011;2117;47.972;7.830;2024-01-10T10:08:26;60.93;;;33.93;;
4206;SDS011;2117;47.972;7.830;2024-01-10T10:10:51;64.90;;;35.57;;
4206;SDS011;2117;47.972;7.830;2024-01-10T10:13:23;66.30;;;35.60;;
4206;SDS011;2117;47.972;7.830;2024-01-10T10:16:00;61.10;;;36.17;;
4206;SDS011;2117;47.972;7.830;2024-01-10T10:18:27;59.27;;;35.47;;
4206;SDS011;2117;47.972;7.830;2024-01-10T10:21:06;62.07;;;34.37;;
4206;SDS011;2117;47.972;7.830;2024-01-10T10:23:33;56.57;;;32.20;;
4206;SDS011;2117;47.972;7.830;2024-01-10T10:25:58;63.43;;;34.93;;
4206;SDS011;2117;47.972;7.830;2024-01-10T10:28:34;61.57;;;34.63;;
4206;SDS011;2117;47.972;7.830;2024-01-10T10:31:00;57.73;;;35.13;;
4206;SDS011;2117;47.972;7.830;2024-01-10T10:33:25;67.97;;;36.30;;
4206;SDS011;2117;47.972;7.830;2024-01-10T10:35:51;63.00;;;35.57;;
4206;SDS011;2117;47.972;7.830;2024-01-10T10:38:16;58.60;;;35.50;;
4206;SDS011;2117;47.972;7.830;2024-01-10T10:40:42;66.43;;;34.40;;
4206;SDS011;2117;47.972;7.830;2024-01-10T10:43:09;63.30;;;34.97;;
4206;SDS011;2117;47.972;7.830;2024-01-10T10:45:39;52.20;;;34.03;;
4206;SDS011;2117;47.972;7.830;2024-01-10T10:48:13;53.80;;;33.73;;
4206;SDS011;2117;47.972;7.830;2024-01-10T10:50:42;61.33;;;36.87;;
4206;SDS011;2117;47.972;7.830;2024-01-10T10:53:32;64.53;;;36.50;;
4206;SDS011;2117;47.972;7.830;2024-01-10T10:55:59;58.50;;;33.10;;
4206;SDS011;2117;47.972;7.830;2024-01-10T10:58:27;69.37;;;33.40;;
4206;SDS011;2117;47.972;7.830;2024-01-10T11:00:53;56.00;;;34.93;;
4206;SDS011;2117;47.972;7.830;2024-01-10T11:03:20;67.37;;;34.87;;
4206;SDS011;2117;47.972;7.830;2024-01-10T11:05:46;63.73;;;35.60;;
4206;SDS011;2117;47.972;7.830;2024-01-10T11:08:13;60.00;;;34.60;;
4206;SDS011;2117;47.972;7.830;2024-01-10T11:10:41;57.23;;;32.93;;
4206;SDS011;2117;47.972;7.830;2024-01-10T11:13:13;57.57;;;33.50;;
4206;SDS011;2117;47.972;7.830;2024-01-10T11:15:59;61.40;;;34.17;;
4206;SDS011;2117;47.972;7.830;2024-01-10T11:24:29;56.60;;;33.77;;
4206;SDS011;2117;47.972;7.830;2024-01-10T11:27:11;57.70;;;33.17;;
4206;SDS011;2117;47.972;7.830;2024-01-10T11:29:38;59.47;;;33.07;;
4206;SDS011;2117;47.972;7.830;2024-01-10T11:32:05;53.10;;;32.40;;
4206;SDS011;2117;47.972;7.830;2024-01-10T11:34:32;50.90;;;29.83;;
4206;SDS011;2117;47.972;7.830;2024-01-10T11:37:09;59.20;;;33.07;;
4206;SDS011;2117;47.972;7.830;2024-01-10T11:39:36;51.83;;;30.07;;
4206;SDS011;2117;47.972;7.830;2024-01-10T11:42:02;57.20;;;31.70;;
4206;SDS011;2117;47.972;7.830;2024-01-10T11:44:28;54.47;;;31.23;;
4206;SDS011;2117;47.972;7.830;2024-01-10T11:46:55;58.10;;;30.40;;
4206;SDS011;2117;47.972;7.830;2024-01-10T11:49:24;50.30;;;31.93;;
4206;SDS011;2117;47.972;7.830;2024-01-10T11:51:59;59.47;;;32.83;;
4206;SDS011;2117;47.972;7.830;2024-01-10T11:54:38;53.33;;;29.77;;
4206;SDS011;2117;47.972;7.830;2024-01-10T11:57:11;54.67;;;30.87;;
4206;SDS011;2117;47.972;7.830;2024-01-10T11:59:45;50.17;;;29.30;;
4206;SDS011;2117;47.972;7.830;2024-01-10T12:02:11;57.83;;;31.03;;
4206;SDS011;2117;47.972;7.830;2024-01-10T12:04:38;54.03;;;29.97;;
4206;SDS011;2117;47.972;7.830;2024-01-10T12:07:05;50.70;;;28.00;;
4206;SDS011;2117;47.972;7.830;2024-01-10T12:09:32;42.30;;;27.53;;
4206;SDS011;2117;47.972;7.830;2024-01-10T12:12:01;48.40;;;29.20;;
4206;SDS011;2117;47.972;7.830;2024-01-10T12:14:28;46.83;;;27.37;;
4206;SDS011;2117;47.972;7.830;2024-01-10T12:16:54;45.80;;;27.43;;
4206;SDS011;2117;47.972;7.830;2024-01-10T12:19:20;43.00;;;24.90;;
4206;SDS011;2117;47.972;7.830;2024-01-10T12:21:45;47.47;;;31.17;;
4206;SDS011;2117;47.972;7.830;2024-01-10T12:24:12;51.20;;;29.93;;
4206;SDS011;2117;47.972;7.830;2024-01-10T12:26:43;44.03;;;26.53;;
4206;SDS011;2117;47.972;7.830;2024-01-10T12:29:09;50.63;;;29.43;;
4206;SDS011;2117;47.972;7.830;2024-01-10T12:31:36;56.57;;;31.07;;
4206;SDS011;2117;47.972;7.830;2024-01-10T12:34:02;46.23;;;25.97;;
4206;SDS011;2117;47.972;7.830;2024-01-10T12:36:28;43.47;;;26.23;;
4206;SDS011;2117;47.972;7.830;2024-01-10T12:38:54;39.50;;;23.63;;
4206;SDS011;2117;47.972;7.830;2024-01-10T12:41:20;45.30;;;26.30;;
4206;SDS011;2117;47.972;7.830;2024-01-10T12:43:49;41.70;;;24.47;;
4206;SDS011;2117;47.972;7.830;2024-01-10T12:46:17;40.03;;;24.33;;
4206;SDS011;2117;47.972;7.830;2024-01-10T12:48:42;44.10;;;24.97;;
4206;SDS011;2117;47.972;7.830;2024-01-10T12:51:08;40.70;;;23.87;;
4206;SDS011;2117;47.972;7.830;2024-01-10T12:53:38;45.77;;;27.93;;
4206;SDS011;2117;47.972;7.830;2024-01-10T12:56:05;45.70;;;25.60;;
4206;SDS011;2117;47.972;7.830;2024-01-10T12:58:32;43.83;;;23.87;;
4206;SDS011;2117;47.972;7.830;2024-01-10T13:01:00;38.60;;;24.10;;
4206;SDS011;2117;47.972;7.830;2024-01-10T13:03:25;40.80;;;25.93;;
4206;SDS011;2117;47.972;7.830;2024-01-10T13:05:51;41.87;;;25.10;;
4206;SDS011;2117;47.972;7.830;2024-01-10T13:08:17;53.43;;;35.23;;
4206;SDS011;2117;47.972;7.830;2024-01-10T13:10:44;42.90;;;28.27;;
4206;SDS011;2117;47.972;7.830;2024-01-10T13:13:10;44.60;;;30.90;;
4206;SDS011;2117;47.972;7.830;2024-01-10T13:15:36;43.13;;;27.10;;
4206;SDS011;2117;47.972;7.830;2024-01-10T13:18:02;46.73;;;32.10;;
4206;SDS011;2117;47.972;7.830;2024-01-10T13:20:28;50.47;;;31.80;;
4206;SDS011;2117;47.972;7.830;2024-01-10T13:22:54;39.70;;;26.10;;
4206;SDS011;2117;47.972;7.830;2024-01-10T13:25:19;40.93;;;26.87;;
4206;SDS011;2117;47.972;7.830;2024-01-10T13:27:49;41.53;;;26.33;;
4206;SDS011;2117;47.972;7.830;2024-01-10T13:30:16;34.00;;;24.00;;
4206;SDS011;2117;47.972;7.830;2024-01-10T13:32:42;43.50;;;26.03;;
4206;SDS011;2117;47.972;7.830;2024-01-10T13:35:08;41.70;;;24.60;;
4206;SDS011;2117;47.972;7.830;2024-01-10T13:37:34;37.47;;;24.37;;
4206;SDS011;2117;47.972;7.830;2024-01-10T13:40:00;36.97;;;24.57;;
4206;SDS011;2117;47.972;7.830;2024-01-10T13:42:25;36.13;;;26.80;;
4206;SDS011;2117;47.972;7.830;2024-01-10T13:44:51;41.03;;;26.50;;
4206;SDS011;2117;47.972;7.830;2024-01-10T13:47:20;32.20;;;20.70;;
4206;SDS011;2117;47.972;7.830;2024-01-10T13:49:48;31.67;;;18.50;;
4206;SDS011;2117;47.972;7.830;2024-01-10T13:52:14;40.93;;;28.97;;
4206;SDS011;2117;47.972;7.830;2024-01-10T13:54:39;36.07;;;25.90;;
4206;SDS011;2117;47.972;7.830;2024-01-10T13:57:05;39.27;;;26.23;;
4206;SDS011;2117;47.972;7.830;2024-01-10T13:59:30;38.00;;;27.30;;
4206;SDS011;2117;47.972;7.830;2024-01-10T14:01:56;39.90;;;26.20;;
4206;SDS011;2117;47.972;7.830;2024-01-10T14:04:24;45.50;;;25.17;;
4206;SDS011;2117;47.972;7.830;2024-01-10T14:06:50;41.67;;;27.90;;
4206;SDS011;2117;47.972;7.830;2024-01-10T14:09:15;38.73;;;25.73;;
4206;SDS011;2117;47.972;7.830;2024-01-10T14:11:43;37.93;;;25.87;;
4206;SDS011;2117;47.972;7.830;2024-01-10T14:14:09;36.90;;;25.87;;
4206;SDS011;2117;47.972;7.830;2024-01-10T14:16:35;46.83;;;27.93;;
4206;SDS011;2117;47.972;7.830;2024-01-10T14:19:01;40.37;;;26.10;;
4206;SDS011;2117;47.972;7.830;2024-01-10T14:21:26;40.00;;;26.63;;
4206;SDS011;2117;47.972;7.830;2024-01-10T14:23:52;38.60;;;27.20;;
4206;SDS011;2117;47.972;7.830;2024-01-10T14:26:18;41.40;;;27.93;;
4206;SDS011;2117;47.972;7.830;2024-01-10T14:28:43;37.50;;;25.60;;
4206;SDS011;2117;47.972;7.830;2024-01-10T14:31:09;39.83;;;26.93;;
4206;SDS011;2117;47.972;7.830;2024-01-10T14:33:38;38.90;;;26.87;;
4206;SDS011;2117;47.972;7.830;2024-01-10T14:36:04;38.40;;;25.83;;
4206;SDS011;2117;47.972;7.830;2024-01-10T14:38:30;42.70;;;25.93;;
4206;SDS011;2117;47.972;7.830;2024-01-10T14:40:56;45.40;;;26.37;;
4206;SDS011;2117;47.972;7.830;2024-01-10T14:43:21;50.97;;;28.60;;
4206;SDS011;2117;47.972;7.830;2024-01-10T14:45:47;43.60;;;25.03;;
4206;SDS011;2117;47.972;7.830;2024-01-10T14:48:13;46.17;;;27.33;;
4206;SDS011;2117;47.972;7.830;2024-01-10T14:50:39;50.53;;;30.30;;